Time;durP1;ratioP1;P1;durP2;ratioP2;P2;SDS_P1;SDS_P2;PMS_P1;PMS_P2;Temp;Humidity;BMP_temperature;BMP_pressure;BME280_temperature;BME280_humidity;BME280_pressure;Samples;Min_cycle;Max_cycle;Signal;HPM_P1;HPM_P2
2023/03/23 00:02:04;;;;;;;52.50;41.40;;;;;;;7.27;62.82;100289.32;109621;1254;58095;-69
2023/03/23 00:04:31;;;;;;;50.90;39.80;;;;;;;7.24;62.94;100286.89;109566;1253;64834;-69
2023/03/23 00:07:02;;;;;;;51.40;40.00;;;;;;;7.18;63.03;100289.70;109181;1254;58086;-69
2023/03/23 00:09:34;;;;;;;52.50;40.80;;;;;;;7.15;63.14;100288.00;109642;1253;57990;-69
2023/03/23 00:12:05;;;;;;;54.00;41.20;;;;;;;7.14;63.18;100282.80;109334;1254;65068;-69
2023/03/23 00:14:40;;;;;;;56.80;43.20;;;;;;;7.13;63.18;100281.41;109388;1253;59932;-70
2023/03/23 00:17:10;;;;;;;57.20;44.00;;;;;;;7.14;63.41;100281.41;109578;1253;65046;-69
2023/03/23 00:19:51;;;;;;;55.80;42.50;;;;;;;7.16;63.32;100278.65;109213;1254;58049;-69
2023/03/23 00:22:20;;;;;;;56.70;43.50;;;;;;;7.17;63.21;100274.01;109344;1253;58268;-69
2023/03/23 00:24:50;;;;;;;52.10;40.90;;;;;;;7.16;63.30;100276.87;109635;1254;65236;-69
2023/03/23 00:27:21;;;;;;;54.00;41.00;;;;;;;7.15;63.26;100270.85;109588;1254;59306;-70
2023/03/23 00:29:52;;;;;;;54.80;40.70;;;;;;;7.13;63.28;100273.36;109340;1253;65025;-69
2023/03/23 00:32:20;;;;;;;51.60;39.10;;;;;;;7.10;63.24;100273.06;109622;1253;58519;-69
2023/03/23 00:34:50;;;;;;;54.40;41.30;;;;;;;7.06;63.34;100270.02;109386;1253;58056;-69
2023/03/23 00:37:17;;;;;;;53.90;40.20;;;;;;;7.05;63.32;100268.91;109581;1253;59677;-69
2023/03/23 00:39:45;;;;;;;53.50;40.50;;;;;;;7.00;63.28;100266.45;109629;1254;58124;-69
2023/03/23 00:42:16;;;;;;;57.40;42.40;;;;;;;6.93;63.31;100267.45;109324;1254;65390;-69
2023/03/23 00:44:43;;;;;;;60.20;44.40;;;;;;;6.85;63.50;100271.04;109600;1254;58170;-69
2023/03/23 00:47:10;;;;;;;76.50;51.00;;;;;;;6.80;63.68;100270.73;109370;1253;58517;-69
2023/03/23 00:49:38;;;;;;;72.90;50.00;;;;;;;6.80;63.96;100270.91;109364;1254;66251;-69
2023/03/23 00:52:05;;;;;;;63.40;45.50;;;;;;;6.81;64.16;100270.47;109434;1253;59098;-69
2023/03/23 00:54:34;;;;;;;62.60;45.00;;;;;;;6.81;64.28;100274.69;109598;1254;65012;-69
2023/03/23 00:57:01;;;;;;;61.20;45.30;;;;;;;6.78;64.09;100275.59;109562;1253;58032;-69
2023/03/23 00:59:29;;;;;;;56.70;43.80;;;;;;;6.76;63.88;100276.77;109312;1254;58216;-69
2023/03/23 01:01:56;;;;;;;65.60;46.10;;;;;;;6.72;63.80;100278.24;109605;1254;64878;-69
2023/03/23 01:04:23;;;;;;;56.50;44.10;;;;;;;6.69;63.84;100281.27;109288;1253;59503;-70
2023/03/23 01:06:50;;;;;;;60.80;44.30;;;;;;;6.65;63.97;100274.48;109440;1254;63798;-69
2023/03/23 01:09:17;;;;;;;65.30;46.60;;;;;;;6.64;64.07;100270.01;109217;1254;58151;-69
2023/03/23 01:11:44;;;;;;;62.10;47.70;;;;;;;6.65;64.15;100271.70;109277;1254;58096;-69
2023/03/23 01:14:11;;;;;;;61.80;46.20;;;;;;;6.66;64.23;100270.04;109464;1254;66086;-69
2023/03/23 01:16:38;;;;;;;58.70;45.40;;;;;;;6.65;64.02;100264.88;109178;1254;58670;-69
2023/03/23 01:19:06;;;;;;;60.10;45.80;;;;;;;6.61;64.01;100266.35;109432;1254;64988;-69
2023/03/23 01:21:33;;;;;;;59.40;46.70;;;;;;;6.58;64.05;100268.45;109232;1254;58142;-69
2023/03/23 01:24:00;;;;;;;56.10;44.50;;;;;;;6.57;63.95;100271.88;109452;1254;58048;-69
2023/03/23 01:26:28;;;;;;;61.40;46.40;;;;;;;6.51;63.86;100272.77;109448;1254;66124;-69
2023/03/23 01:28:55;;;;;;;65.50;48.20;;;;;;;6.45;64.00;100272.62;109451;1254;58406;-69
2023/03/23 01:31:23;;;;;;;63.90;49.00;;;;;;;6.44;64.09;100273.57;109242;1254;64839;-69
2023/03/23 01:33:52;;;;;;;68.50;51.20;;;;;;;6.43;64.27;100269.43;109425;1254;58563;-69
2023/03/23 01:36:22;;;;;;;77.80;59.60;;;;;;;6.43;64.51;100270.63;109228;1254;58159;-69
2023/03/23 01:38:51;;;;;;;74.40;56.50;;;;;;;6.46;64.70;100271.49;109484;1254;65965;-69
2023/03/23 01:41:19;;;;;;;81.20;60.30;;;;;;;6.49;64.80;100273.23;109275;1254;58349;-69
2023/03/23 01:44:27;;;;;;;76.00;57.10;;;;;;;6.51;64.84;100268.05;109243;1254;65115;-69
2023/03/23 01:46:59;;;;;;;70.40;55.20;;;;;;;6.51;64.92;100270.98;109160;1254;58243;-69
2023/03/23 01:49:30;;;;;;;74.60;55.60;;;;;;;6.48;64.99;100273.46;109225;1254;58178;-69
2023/03/23 01:52:02;;;;;;;73.60;55.60;;;;;;;6.47;64.99;100273.70;109481;1254;66201;-69
2023/03/23 01:54:29;;;;;;;78.90;56.80;;;;;;;6.47;64.96;100273.88;109161;1254;59555;-70
2023/03/23 01:56:58;;;;;;;77.00;56.80;;;;;;;6.46;64.94;100273.23;109431;1254;63814;-69
2023/03/23 01:59:25;;;;;;;82.40;56.90;;;;;;;6.43;64.84;100274.30;109112;1254;58171;-69
2023/03/23 02:02:10;;;;;;;83.20;59.00;;;;;;;6.39;64.89;100276.15;109201;1254;58020;-69
2023/03/23 02:04:37;;;;;;;85.30;63.40;;;;;;;6.38;65.01;100273.44;109390;1254;66323;-69
2023/03/23 02:07:04;;;;;;;85.20;61.20;;;;;;;6.39;64.95;100270.42;109258;1254;58205;-69
2023/03/23 02:09:32;;;;;;;85.50;61.30;;;;;;;6.37;64.93;100270.86;109046;1254;64545;-69
2023/03/23 02:11:59;;;;;;;84.50;59.60;;;;;;;6.35;64.95;100273.05;109147;1254;58032;-69
2023/03/23 02:14:27;;;;;;;90.10;60.30;;;;;;;6.36;64.96;100274.98;109224;1254;58096;-69
2023/03/23 02:17:07;;;;;;;84.40;61.90;;;;;;;6.35;65.09;100273.63;109091;1254;66228;-70
2023/03/23 02:19:53;;;;;;;83.20;59.30;;;;;;;6.36;65.07;100274.98;109117;1255;59794;-70
2023/03/23 02:22:26;;;;;;;80.30;59.10;;;;;;;6.36;64.92;100276.33;109223;1254;65310;-69
2023/03/23 02:25:04;;;;;;;;;;;;;;;6.36;64.93;100275.30;109137;1254;58177;-69
2023/03/23 02:28:09;;;;;;;76.60;53.50;;;;;;;6.37;65.09;100275.05;109125;1254;58215;-70
2023/03/23 02:31:08;;;;;;;79.60;56.20;;;;;;;6.37;64.98;100273.51;108798;1262;65192;-69
2023/03/23 02:33:36;;;;;;;84.80;57.80;;;;;;;6.34;64.98;100273.12;109142;1254;59393;-70
2023/03/23 02:36:10;;;;;;;82.20;59.20;;;;;;;6.33;65.08;100272.15;109369;1254;64916;-69
2023/03/23 02:38:38;;;;;;;88.10;63.80;;;;;;;6.34;65.12;100274.05;109158;1254;58164;-71
2023/03/23 02:41:05;;;;;;;87.20;64.00;;;;;;;6.36;65.25;100271.11;109055;1254;58216;-69
2023/03/23 02:43:36;;;;;;;90.00;65.10;;;;;;;6.40;65.49;100272.78;109229;1254;65114;-70
2023/03/23 02:46:06;;;;;;;89.20;65.30;;;;;;;6.44;65.67;100271.98;109311;1254;58333;-69
2023/03/23 02:48:34;;;;;;;84.00;62.80;;;;;;;6.46;65.68;100269.75;109139;1254;63823;-69
2023/03/23 02:51:01;;;;;;;89.30;64.90;;;;;;;6.43;65.67;100272.56;109158;1254;58332;-69
2023/03/23 02:53:32;;;;;;;93.20;65.00;;;;;;;6.41;65.80;100271.30;109401;1254;58137;-69
2023/03/23 02:56:02;;;;;;;92.70;64.70;;;;;;;6.39;65.80;100272.36;109236;1254;65936;-69
2023/03/23 02:58:30;;;;;;;90.20;62.20;;;;;;;6.37;65.75;100275.08;109199;1256;58403;-70
2023/03/23 03:01:00;;;;;;;85.80;62.10;;;;;;;6.33;65.70;100273.04;109043;1255;63481;-69
2023/03/23 03:03:30;;;;;;;83.90;61.20;;;;;;;6.29;65.81;100273.98;109025;1256;58212;-69
2023/03/23 03:06:12;;;;;;;82.70;61.10;;;;;;;6.26;65.87;100277.13;109024;1256;58159;-69
2023/03/23 03:08:59;;;;;;;86.30;62.70;;;;;;;6.26;65.88;100281.16;109077;1255;66016;-69
2023/03/23 03:11:28;;;;;;;83.60;60.50;;;;;;;6.27;65.88;100284.58;109119;1259;58204;-69
2023/03/23 03:14:23;;;;;;;81.00;58.60;;;;;;;6.27;65.85;100284.61;109044;1256;65204;-69
2023/03/23 03:17:13;;;;;;;82.10;59.20;;;;;;;6.28;65.86;100283.32;109091;1255;58177;-69
2023/03/23 03:19:48;;;;;;;82.20;58.30;;;;;;;6.30;65.94;100282.68;109170;1255;58208;-69
2023/03/23 03:22:18;;;;;;;85.20;60.20;;;;;;;6.30;65.99;100283.71;109145;1256;65166;-69
2023/03/23 03:24:51;;;;;;;83.10;62.20;;;;;;;6.31;66.02;100285.05;109112;1256;59719;-70
2023/03/23 03:27:23;;;;;;;86.40;60.30;;;;;;;6.33;66.08;100285.96;109130;1255;64948;-69
2023/03/23 03:30:15;;;;;;;86.60;63.00;;;;;;;6.34;66.19;100283.33;109141;1255;58040;-69
2023/03/23 03:33:00;;;;;;;78.20;57.20;;;;;;;6.33;66.46;100286.02;109186;1255;58041;-69
2023/03/23 03:35:31;;;;;;;88.10;64.20;;;;;;;6.33;66.56;100284.91;109151;1256;63867;-70
2023/03/23 03:38:11;;;;;;;89.20;63.90;;;;;;;6.32;66.73;100284.65;109058;1256;58438;-69
2023/03/23 03:40:41;;;;;;;91.00;66.30;;;;;;;6.33;66.84;100288.06;109012;1255;64997;-70
2023/03/23 03:43:10;;;;;;;92.10;66.20;;;;;;;6.35;66.95;100289.36;109184;1255;58182;-69
2023/03/23 03:45:40;;;;;;;90.30;64.40;;;;;;;6.36;67.01;100290.52;109391;1256;58091;-69
2023/03/23 03:48:09;;;;;;;84.50;63.00;;;;;;;6.36;67.08;100290.38;109101;1256;66297;-69
2023/03/23 03:50:43;;;;;;;90.20;65.20;;;;;;;6.34;67.07;100285.02;109161;1255;58459;-69
2023/03/23 03:53:14;;;;;;;85.90;63.10;;;;;;;6.34;67.06;100285.21;109101;1256;64022;-69
2023/03/23 03:55:48;;;;;;;89.90;64.60;;;;;;;6.33;67.08;100281.27;109128;1261;58085;-69
2023/03/23 04:06:12;;;;;;;89.80;63.60;;;;;;;6.31;66.83;100290.45;103713;1292;600630;-69
2023/03/23 04:08:41;;;;;;;88.20;64.90;;;;;;;6.29;66.77;100288.83;106475;1260;59247;-69
2023/03/23 04:11:08;;;;;;;89.00;65.20;;;;;;;6.30;66.70;100291.92;106588;1262;59274;-69
2023/03/23 04:13:36;;;;;;;85.00;61.80;;;;;;;6.33;66.72;100295.98;106535;1259;65069;-69
2023/03/23 04:16:07;;;;;;;93.00;64.90;;;;;;;6.34;66.64;100296.63;106454;1265;59896;-69
2023/03/23 04:18:34;;;;;;;90.30;64.20;;;;;;;6.34;66.76;100297.31;106473;1260;65324;-69
2023/03/23 04:21:02;;;;;;;85.00;63.10;;;;;;;6.36;66.74;100299.47;106573;1257;173768;-69
2023/03/23 04:23:33;;;;;;;89.40;64.90;;;;;;;6.36;66.69;100301.35;106619;1258;59212;-69
2023/03/23 04:26:03;;;;;;;85.30;62.50;;;;;;;6.36;66.73;100306.42;106720;1262;64766;-69
2023/03/23 04:28:35;;;;;;;89.20;63.60;;;;;;;6.36;66.60;100306.23;106751;1257;59776;-69
2023/03/23 04:31:25;;;;;;;85.20;60.20;;;;;;;6.37;66.76;100307.96;106487;1258;65784;-69
2023/03/23 04:33:57;;;;;;;84.30;61.50;;;;;;;6.36;66.74;100308.88;106965;1254;59698;-69
2023/03/23 04:36:26;;;;;;;84.60;63.70;;;;;;;6.35;66.69;100308.23;107099;1256;59510;-69
2023/03/23 04:39:00;;;;;;;80.40;61.50;;;;;;;6.34;66.74;100308.82;106937;1254;64624;-69
2023/03/23 04:41:28;;;;;;;82.70;60.00;;;;;;;6.33;66.77;100308.36;106938;1253;59981;-69
2023/03/23 04:44:06;;;;;;;81.90;59.20;;;;;;;6.33;66.83;100305.92;106976;1257;64348;-69
2023/03/23 04:46:39;;;;;;;80.80;59.00;;;;;;;6.33;66.92;100307.83;107076;1254;59635;-69
2023/03/23 04:49:10;;;;;;;75.70;56.10;;;;;;;6.33;66.91;100307.48;107090;1254;59545;-69
2023/03/23 04:51:39;;;;;;;72.60;54.20;;;;;;;6.34;66.96;100310.61;106993;1254;65568;-69
2023/03/23 04:54:19;;;;;;;72.20;54.20;;;;;;;6.35;67.07;100312.13;107049;1256;59763;-69
2023/03/23 04:56:50;;;;;;;66.40;50.80;;;;;;;6.37;67.23;100310.58;107017;1254;65516;-69
2023/03/23 04:59:21;;;;;;;65.90;49.00;;;;;;;6.40;67.31;100315.30;107000;1256;59646;-69
2023/03/23 05:02:07;;;;;;;65.00;47.20;;;;;;;6.43;67.58;100318.21;106959;1254;59663;-69
2023/03/23 05:04:34;;;;;;;63.90;48.70;;;;;;;6.47;67.70;100321.81;107066;1253;66176;-69
2023/03/23 05:07:11;;;;;;;59.30;45.90;;;;;;;6.51;67.81;100319.62;106900;1257;59663;-69
2023/03/23 05:09:46;;;;;;;63.60;47.60;;;;;;;6.57;67.92;100323.29;106869;1259;65665;-69
2023/03/23 05:12:14;;;;;;;62.20;47.60;;;;;;;6.63;67.98;100324.63;106987;1254;59519;-69
2023/03/23 05:14:58;;;;;;;57.30;44.10;;;;;;;6.69;68.07;100321.83;106850;1256;59218;-69
2023/03/23 05:17:27;;;;;;;61.30;44.50;;;;;;;6.73;68.20;100323.48;106927;1253;66040;-69
2023/03/23 05:20:04;;;;;;;55.90;41.30;;;;;;;6.78;68.27;100322.80;106849;1260;59698;-68
2023/03/23 05:22:38;;;;;;;58.90;43.10;;;;;;;6.85;68.44;100319.40;106960;1254;65184;-68
2023/03/23 05:25:08;;;;;;;59.90;42.90;;;;;;;6.91;68.53;100313.58;106930;1254;59733;-70
2023/03/23 05:27:37;;;;;;;50.50;39.40;;;;;;;6.97;68.62;100312.30;106917;1253;59718;-68
2023/03/23 05:30:15;;;;;;;49.60;37.20;;;;;;;7.06;68.80;100313.64;106952;1254;64606;-69
2023/03/23 05:32:44;;;;;;;54.20;39.50;;;;;;;7.15;69.00;100316.69;106965;1256;59596;-69
2023/03/23 05:35:24;;;;;;;49.70;40.00;;;;;;;7.26;69.07;100317.58;106954;1259;64303;-69
2023/03/23 05:37:53;;;;;;;52.00;40.10;;;;;;;7.34;69.05;100318.05;106948;1254;59503;-69
2023/03/23 05:40:20;;;;;;;55.00;40.10;;;;;;;7.42;69.12;100312.64;106942;1256;59580;-69
2023/03/23 05:42:57;;;;;;;50.50;37.50;;;;;;;7.50;69.17;100310.46;106907;1254;65812;-69
2023/03/23 05:45:35;;;;;;;51.60;39.20;;;;;;;7.58;69.17;100310.52;106862;1259;59935;-69
2023/03/23 05:48:04;;;;;;;50.70;40.10;;;;;;;7.64;69.26;100310.75;107032;1255;65513;-69
2023/03/23 05:50:31;;;;;;;51.20;38.80;;;;;;;7.74;69.31;100313.27;107139;1254;59535;-68
2023/03/23 05:52:59;;;;;;;52.70;40.40;;;;;;;7.84;69.41;100312.18;106995;1257;59640;-69
2023/03/23 05:55:28;;;;;;;51.40;40.90;;;;;;;7.93;69.51;100310.18;107009;1254;65092;-68
2023/03/23 05:58:03;;;;;;;48.90;38.30;;;;;;;8.02;69.69;100311.81;106974;1254;59640;-69
2023/03/23 06:00:34;;;;;;;46.00;37.50;;;;;;;8.14;69.76;100315.38;106904;1253;65754;-69
2023/03/23 06:03:22;;;;;;;49.40;39.60;;;;;;;8.26;69.67;100318.52;106971;1257;59691;-69
2023/03/23 06:06:12;;;;;;;47.90;37.80;;;;;;;8.41;69.58;100320.32;106907;1257;59772;-70
2023/03/23 06:08:50;;;;;;;48.70;38.80;;;;;;;8.52;69.53;100324.41;106801;1259;65589;-70
2023/03/23 06:11:25;;;;;;;49.90;39.10;;;;;;;8.62;69.35;100322.54;106962;1254;59028;-70
2023/03/23 06:14:09;;;;;;;48.80;36.80;;;;;;;8.71;69.16;100321.85;106955;1257;65606;-70
2023/03/23 06:16:36;;;;;;;47.30;39.30;;;;;;;8.81;69.18;100321.45;106914;1258;59750;-68
2023/03/23 06:19:09;;;;;;;50.90;38.20;;;;;;;8.95;69.27;100318.16;106948;1254;59725;-69
2023/03/23 06:21:42;;;;;;;50.40;39.20;;;;;;;9.10;69.16;100314.61;106923;1254;65568;-67
2023/03/23 06:24:25;;;;;;;47.10;38.30;;;;;;;9.22;68.91;100317.55;106979;1253;60045;-69
2023/03/23 06:26:54;;;;;;;50.30;38.10;;;;;;;9.34;68.81;100322.27;106973;1254;65416;-70
2023/03/23 06:33:56;;;;;;;51.50;38.80;;;;;;;9.64;68.49;100318.98;107012;1254;58683;-72
2023/03/23 06:36:29;;;;;;;49.10;38.90;;;;;;;9.76;68.18;100318.02;107172;1254;65561;-70
2023/03/23 06:39:05;;;;;;;47.10;36.40;;;;;;;9.88;68.04;100319.17;106999;1254;59799;-73
2023/03/23 06:41:44;;;;;;;45.70;35.10;;;;;;;10.03;67.76;100318.00;106897;1254;65077;-69
2023/03/23 06:44:14;;;;;;;45.40;36.20;;;;;;;10.17;67.53;100316.57;106920;1256;59637;-71
2023/03/23 06:46:42;;;;;;;45.10;37.20;;;;;;;10.32;67.48;100313.99;106961;1254;59624;-70
2023/03/23 06:49:18;;;;;;;43.40;36.10;;;;;;;10.50;67.38;100321.55;106903;1254;64645;-69
2023/03/23 06:52:01;;;;;;;42.90;36.20;;;;;;;10.67;67.08;100319.64;106939;1254;60015;-68
2023/03/23 06:54:29;;;;;;;46.80;37.20;;;;;;;10.81;66.71;100320.09;106900;1254;65275;-70
2023/03/23 07:01:30;;;;;;;45.10;36.60;;;;;;;11.15;66.02;100315.36;107022;1254;59659;-70
2023/03/23 07:04:00;;;;;;;44.20;34.60;;;;;;;11.28;65.56;100315.88;106732;1254;64691;-68
2023/03/23 07:06:40;;;;;;;44.10;35.80;;;;;;;11.39;65.18;100317.92;106981;1254;59637;-71
2023/03/23 07:09:08;;;;;;;42.50;34.90;;;;;;;11.48;65.17;100316.80;106865;1259;64177;-67
2023/03/23 07:11:35;;;;;;;43.20;34.90;;;;;;;11.59;64.90;100313.41;106964;1255;59858;-67
2023/03/23 07:14:07;;;;;;;40.90;34.40;;;;;;;11.71;64.55;100312.54;106857;1254;59516;-68
2023/03/23 07:16:42;;;;;;;43.50;35.10;;;;;;;11.84;64.23;100313.84;106901;1254;65903;-66
2023/03/23 07:19:10;;;;;;;39.80;33.50;;;;;;;11.97;64.22;100315.69;104727;1257;59332;-65
2023/03/23 07:21:37;;;;;;;38.00;33.60;;;;;;;12.10;63.94;100317.59;104566;1259;64348;-66
2023/03/23 07:24:05;;;;;;;37.80;33.60;;;;;;;12.24;63.80;100317.95;104629;1254;60302;-67
2023/03/23 07:26:56;;;;;;;40.40;32.30;;;;;;;12.39;63.44;100319.59;106915;1254;59237;-70
2023/03/23 07:29:30;;;;;;;43.80;34.00;;;;;;;12.52;62.92;100318.14;107227;1254;65640;-70
2023/03/23 07:32:11;;;;;;;39.20;33.10;;;;;;;12.61;62.49;100317.17;105148;1259;59488;-70
2023/03/23 07:39:12;;;;;;;42.80;33.70;;;;;;;12.89;61.64;100315.85;107348;1257;59647;-72
2023/03/23 07:41:40;;;;;;;48.50;32.70;;;;;;;13.02;61.34;100310.77;106832;1254;59727;-75
2023/03/23 07:44:22;;;;;;;39.10;32.40;;;;;;;13.20;61.38;100312.86;106926;1254;65339;-72
2023/03/23 07:46:51;;;;;;;39.30;32.10;;;;;;;13.37;60.90;100310.96;107054;1254;59721;-75
2023/03/23 07:49:30;;;;;;;40.50;31.60;;;;;;;13.52;60.76;100300.88;106817;1253;65287;-75
2023/03/23 07:52:02;;;;;;;42.90;31.80;;;;;;;13.71;60.54;100300.17;106981;1254;59739;-74
2023/03/23 07:54:30;;;;;;;41.20;31.40;;;;;;;13.92;60.33;100305.76;106941;1254;59647;-75
2023/03/23 07:57:06;;;;;;;36.70;30.40;;;;;;;14.15;59.87;100306.77;106922;1255;65913;-74
2023/03/23 07:59:37;;;;;;;37.80;30.70;;;;;;;14.35;59.01;100303.98;106961;1254;59647;-75
2023/03/23 08:02:04;;;;;;;35.90;28.70;;;;;;;14.49;58.50;100303.85;106963;1254;64213;-75
2023/03/23 08:04:37;;;;;;;31.30;26.30;;;;;;;14.64;58.04;100306.31;106970;1253;59676;-75
2023/03/23 08:07:23;;;;;;;34.00;27.30;;;;;;;14.81;57.12;100305.23;106956;1254;59423;-73
2023/03/23 08:10:11;;;;;;;40.20;27.50;;;;;;;14.98;56.57;100301.21;106956;1253;65561;-70
2023/03/23 08:12:59;;;;;;;33.00;26.80;;;;;;;15.13;56.23;100299.05;106762;1258;59970;-74
2023/03/23 08:15:37;;;;;;;27.10;23.20;;;;;;;15.24;55.79;100301.67;107055;1253;65419;-74
2023/03/23 08:18:07;;;;;;;29.70;23.50;;;;;;;15.33;55.00;100305.02;106960;1254;59640;-76
2023/03/23 08:20:48;;;;;;;29.20;23.80;;;;;;;15.41;54.82;100303.61;106950;1252;57890;-75
2023/03/23 08:23:36;;;;;;;27.70;22.70;;;;;;;15.54;54.54;100302.48;106958;1254;66004;-73
2023/03/23 08:26:30;;;;;;;27.40;23.10;;;;;;;15.66;54.21;100300.05;106879;1254;60437;-75
2023/03/23 08:33:44;;;;;;;30.10;22.90;;;;;;;15.79;53.13;100302.50;107060;1254;60361;-76
2023/03/23 08:36:46;;;;;;;26.90;22.10;;;;;;;15.83;53.36;100302.37;106300;1261;58560;-75
2023/03/23 08:39:30;;;;;;;;;;;;;;;15.97;53.42;100300.21;106947;1257;66472;-73
2023/03/23 08:42:09;;;;;;;28.60;22.50;;;;;;;16.14;52.95;100296.91;106943;1254;61077;-74
2023/03/23 08:45:18;;;;;;;28.00;21.00;;;;;;;16.31;52.18;100294.91;106724;1254;65265;-74
2023/03/23 08:48:04;;;;;;;26.00;23.30;;;;;;;16.38;51.68;100293.30;106938;1254;60373;-74
2023/03/23 09:00:17;;;;;;;26.70;21.40;;;;;;;16.79;51.48;100277.64;106912;1254;60338;-77
2023/03/23 09:03:19;;;;;;;30.20;23.50;;;;;;;17.08;50.66;100271.95;106710;1254;64364;-75
2023/03/23 09:06:00;;;;;;;27.00;22.70;;;;;;;17.27;50.27;100268.66;106874;1254;60306;-73
2023/03/23 09:13:13;;;;;;;26.40;21.50;;;;;;;17.59;48.66;100262.33;106879;1254;65542;-73
2023/03/23 09:15:41;;;;;;;24.10;20.70;;;;;;;17.69;48.23;100260.05;106756;1254;60091;-82
2023/03/23 09:18:09;;;;;;;22.20;19.50;;;;;;;17.80;47.88;100257.84;106865;1253;65998;-76
2023/03/23 09:20:37;;;;;;;28.10;20.40;;;;;;;17.96;46.84;100259.69;106700;1256;60466;-79
2023/03/23 09:23:05;;;;;;;22.70;18.80;;;;;;;18.06;46.25;100254.65;106828;1254;60542;-76
2023/03/23 09:25:32;;;;;;;25.70;19.30;;;;;;;18.11;46.45;100255.55;106650;1254;66995;-70
2023/03/23 09:27:59;;;;;;;21.40;17.90;;;;;;;18.18;45.94;100257.44;106911;1254;60351;-72
2023/03/23 09:30:29;;;;;;;23.90;17.70;;;;;;;18.21;44.93;100257.11;106904;1254;65395;-70
2023/03/23 09:32:57;;;;;;;17.00;14.60;;;;;;;18.20;44.39;100251.02;106699;1253;60339;-71
2023/03/23 09:35:29;;;;;;;19.60;15.00;;;;;;;18.23;43.73;100250.41;106973;1254;60431;-71
2023/03/23 09:37:56;;;;;;;15.80;14.00;;;;;;;18.28;42.80;100250.77;106896;1254;66688;-75
2023/03/23 09:59:18;;;;;;;14.90;11.90;;;;;;;19.36;40.28;100220.18;106862;1254;65549;-74
2023/03/23 10:16:23;;;;;;;13.30;10.70;;;;;;;19.55;38.77;100212.36;106801;1256;61802;-74
2023/03/23 10:19:16;;;;;;;13.50;11.50;;;;;;;19.61;38.33;100209.95;106508;1257;66502;-74
2023/03/23 10:21:48;;;;;;;13.40;11.60;;;;;;;19.69;38.15;100207.17;106626;1256;60569;-74
2023/03/23 10:24:16;;;;;;;13.90;11.00;;;;;;;19.80;37.78;100208.13;106618;1256;65369;-74
2023/03/23 10:27:18;;;;;;;14.40;11.60;;;;;;;19.83;37.43;100206.88;106766;1255;60210;-73
2023/03/23 10:34:45;;;;;;;13.80;11.30;;;;;;;19.72;38.16;100197.30;106794;1257;64432;-74
2023/03/23 10:41:34;;;;;;;13.50;11.10;;;;;;;20.21;37.03;100190.43;106858;1256;65301;-74
2023/03/23 10:44:01;;;;;;;12.70;11.40;;;;;;;20.25;36.53;100190.09;106709;1257;60497;-73
2023/03/23 10:46:39;;;;;;;15.00;11.60;;;;;;;20.19;37.08;100183.53;106783;1257;60466;-73
2023/03/23 10:49:11;;;;;;;11.90;10.00;;;;;;;20.19;37.40;100177.02;106677;1257;65842;-73
2023/03/23 10:51:44;;;;;;;15.50;10.60;;;;;;;20.27;37.35;100174.33;106331;1257;60351;-73
2023/03/23 10:54:11;;;;;;;11.80;10.00;;;;;;;20.37;36.68;100172.72;106740;1257;65458;-74
2023/03/23 10:56:44;;;;;;;15.70;9.80;;;;;;;20.42;36.60;100169.02;106746;1256;60415;-74
2023/03/23 10:59:20;;;;;;;12.30;9.80;;;;;;;20.57;36.62;100165.92;106680;1256;60361;-74
2023/03/23 11:01:54;;;;;;;12.30;9.80;;;;;;;20.76;36.07;100161.20;106586;1256;66619;-73
2023/03/23 11:04:22;;;;;;;11.40;9.40;;;;;;;20.96;36.03;100153.30;106524;1257;60527;-74
2023/03/23 11:06:54;;;;;;;11.90;9.40;;;;;;;21.21;35.61;100149.54;106742;1256;65342;-74
2023/03/23 11:14:16;;;;;;;12.70;9.20;;;;;;;21.20;34.64;100142.34;106890;1256;59333;-72
2023/03/23 11:16:55;;;;;;;12.20;9.50;;;;;;;21.04;35.02;100137.27;106831;1257;66401;-72
2023/03/23 11:19:25;;;;;;;12.10;9.90;;;;;;;20.93;35.13;100135.20;106726;1257;60635;-73
2023/03/23 11:26:28;;;;;;;11.70;9.50;;;;;;;20.65;35.66;100131.82;106802;1260;60454;-73
2023/03/23 11:28:57;;;;;;;11.40;8.50;;;;;;;20.56;35.74;100126.70;106868;1256;60467;-73
2023/03/23 11:31:31;;;;;;;12.80;9.00;;;;;;;20.47;35.51;100128.64;106700;1256;66638;-73
2023/03/23 11:33:58;;;;;;;;;;;;;;;20.38;35.76;100123.97;106675;1257;60444;-73
2023/03/23 11:36:42;;;;;;;13.10;8.70;;;;;;;20.35;35.55;100119.86;106808;1256;65375;-73
2023/03/23 11:48:15;;;;;;;10.80;7.60;;;;;;;20.29;35.78;100112.46;106735;1256;66749;-72
2023/03/23 11:50:55;;;;;;;11.90;8.50;;;;;;;20.30;35.40;100106.36;106713;1256;60357;-72
2023/03/23 11:53:25;;;;;;;9.90;8.10;;;;;;;20.28;35.23;100100.67;106652;1257;73128;-72
2023/03/23 11:55:58;;;;;;;18.10;11.10;;;;;;;20.27;35.82;100100.04;106711;1257;60558;-72
2023/03/23 12:03:17;;;;;;;10.20;7.90;;;;;;;20.42;35.75;100094.45;106882;1254;66736;-72
2023/03/23 12:06:04;;;;;;;9.60;7.30;;;;;;;20.55;35.10;100094.38;106844;1254;60425;-72
2023/03/23 12:08:39;;;;;;;10.80;7.60;;;;;;;20.62;34.45;100091.74;106645;1254;64493;-72
2023/03/23 12:11:35;;;;;;;8.60;7.40;;;;;;;20.71;34.89;100087.23;106836;1254;60290;-72
2023/03/23 12:14:25;;;;;;;7.70;6.50;;;;;;;20.89;34.38;100088.54;106904;1254;59134;-72
2023/03/23 12:17:02;;;;;;;10.10;8.50;;;;;;;20.95;34.30;100089.04;106885;1254;65934;-72
2023/03/23 12:19:56;;;;;;;9.90;7.60;;;;;;;20.96;34.51;100085.79;106853;1254;60504;-72
2023/03/23 12:22:42;;;;;;;8.20;7.10;;;;;;;21.00;34.11;100083.69;106659;1254;65358;-73
2023/03/23 12:25:30;;;;;;;7.70;6.80;;;;;;;20.94;33.63;100080.52;106664;1254;60383;-72
2023/03/23 12:28:26;;;;;;;8.90;6.80;;;;;;;20.80;33.76;100078.88;106741;1254;60581;-72
2023/03/23 12:31:06;;;;;;;9.70;7.10;;;;;;;20.68;33.80;100072.48;106833;1254;67190;-73
2023/03/23 12:33:45;;;;;;;7.90;6.30;;;;;;;20.61;33.89;100068.99;106787;1254;60322;-73
2023/03/23 12:41:07;;;;;;;5.80;4.90;;;;;;;20.55;34.43;100058.83;106930;1254;60447;-72
2023/03/23 12:43:58;;;;;;;9.30;6.80;;;;;;;20.50;34.31;100055.12;106632;1254;60457;-73
2023/03/23 12:46:36;;;;;;;10.70;7.30;;;;;;;20.50;34.38;100055.24;106780;1254;65753;-72
2023/03/23 12:49:35;;;;;;;9.60;6.60;;;;;;;20.51;34.41;100054.70;106795;1254;60380;-72
2023/03/23 12:52:21;;;;;;;8.60;6.40;;;;;;;20.55;34.34;100053.02;106784;1256;64600;-73
2023/03/23 12:55:02;;;;;;;7.30;6.50;;;;;;;20.66;34.42;100051.20;106871;1254;60460;-73
2023/03/23 12:57:51;;;;;;;10.10;7.50;;;;;;;20.76;34.38;100053.80;106661;1254;60415;-73
2023/03/23 13:00:30;;;;;;;9.20;7.00;;;;;;;20.78;33.81;100051.91;106827;1254;65180;-73
2023/03/23 13:03:32;;;;;;;8.60;6.50;;;;;;;20.73;33.80;100050.59;106833;1254;60550;-73
2023/03/23 13:06:08;;;;;;;9.40;6.80;;;;;;;20.67;33.66;100045.05;106830;1256;63797;-72
2023/03/23 13:08:56;;;;;;;11.50;8.50;;;;;;;20.65;34.09;100044.67;106680;1254;60640;-73
2023/03/23 13:11:35;;;;;;;18.40;12.70;;;;;;;20.70;35.34;100040.90;106724;1259;60356;-73
2023/03/23 13:14:18;;;;;;;16.40;13.20;;;;;;;20.70;36.29;100038.34;106695;1254;66551;-73
2023/03/23 13:17:01;;;;;;;18.30;13.10;;;;;;;20.67;36.54;100036.89;106867;1254;60562;-73
2023/03/23 13:20:11;;;;;;;18.60;14.20;;;;;;;20.63;36.74;100039.08;106593;1254;65260;-73
2023/03/23 13:22:51;;;;;;;18.90;13.70;;;;;;;20.57;37.15;100034.45;106873;1254;61255;-73
2023/03/23 13:25:48;;;;;;;18.50;13.60;;;;;;;20.53;37.69;100027.77;106806;1254;60437;-73
2023/03/23 13:32:30;;;;;;;18.10;13.80;;;;;;;20.60;37.60;100029.98;106890;1254;60454;-73
2023/03/23 13:34:57;;;;;;;19.20;13.80;;;;;;;20.60;37.71;100028.95;106561;1254;64523;-73
2023/03/23 13:37:26;;;;;;;18.20;13.40;;;;;;;20.62;37.72;100024.33;106673;1254;60460;-72
2023/03/23 13:39:56;;;;;;;18.40;13.80;;;;;;;20.64;37.61;100019.92;106706;1254;60513;-72